Time;durP1;ratioP1;P1;durP2;ratioP2;P2;SDS_P1;SDS_P2;PMS_P1;PMS_P2;Temp;Humidity;BMP_temperature;BMP_pressure;BME280_temperature;BME280_humidity;BME280_pressure;Samples;Min_cycle;Max_cycle;Signal;HPM_P1;HPM_P2
2022/04/24 00:01:10;;;;;;;4.27;3.87;;;13.80;99.90;;;;;;5066526;28;20292;-52
2022/04/24 00:03:37;;;;;;;4.77;4.27;;;13.80;99.90;;;;;;5058973;28;20623;-52
2022/04/24 00:06:04;;;;;;;4.83;4.43;;;13.60;99.90;;;;;;5063869;28;20194;-51
2022/04/24 00:08:31;;;;;;;6.63;4.30;;;13.60;99.90;;;;;;5063063;28;20223;-51
2022/04/24 00:10:58;;;;;;;5.50;3.90;;;13.60;99.90;;;;;;5056609;28;20222;-51
2022/04/24 00:13:25;;;;;;;6.87;4.20;;;13.50;99.90;;;;;;5044373;28;20196;-51
2022/04/24 00:15:51;;;;;;;4.80;4.03;;;13.60;99.90;;;;;;5059538;28;20222;-52
2022/04/24 00:18:18;;;;;;;4.60;4.20;;;13.40;99.90;;;;;;5045302;28;20600;-52
2022/04/24 00:20:45;;;;;;;4.57;3.97;;;13.50;99.90;;;;;;5063605;28;20293;-51
2022/04/24 00:23:12;;;;;;;4.10;3.70;;;13.60;99.90;;;;;;5054141;28;20228;-51
2022/04/24 00:25:39;;;;;;;7.17;3.97;;;13.40;99.90;;;;;;5065882;28;20258;-51
2022/04/24 00:28:06;;;;;;;5.23;4.30;;;13.40;99.90;;;;;;5056533;28;20225;-51
2022/04/24 00:30:32;;;;;;;5.37;4.07;;;13.10;99.90;;;;;;5065106;28;20312;-52
2022/04/24 00:32:59;;;;;;;5.73;4.07;;;13.10;99.90;;;;;;5063452;28;20631;-51
2022/04/24 00:35:26;;;;;;;4.23;3.83;;;13.00;99.90;;;;;;5055723;28;20338;-54
2022/04/24 00:37:53;;;;;;;5.20;4.50;;;13.10;99.90;;;;;;5048247;28;20316;-53
2022/04/24 00:40:19;;;;;;;5.00;4.50;;;12.90;99.90;;;;;;5055267;28;20747;-53
2022/04/24 00:42:46;;;;;;;6.03;4.40;;;12.90;99.90;;;;;;5059746;28;20578;-52
2022/04/24 00:45:13;;;;;;;4.87;4.37;;;13.00;99.90;;;;;;5067879;28;20253;-54
2022/04/24 00:47:43;;;;;;;4.90;4.50;;;12.90;99.90;;;;;;5065969;28;20199;-52
2022/04/24 00:50:11;;;;;;;5.03;3.83;;;12.90;99.90;;;;;;5050908;28;20240;-50
2022/04/24 00:52:38;;;;;;;5.60;5.10;;;12.90;99.90;;;;;;5051936;28;20191;-52
2022/04/24 00:55:06;;;;;;;5.13;4.63;;;12.80;99.90;;;;;;5057551;28;20259;-52
2022/04/24 00:57:33;;;;;;;4.83;4.33;;;12.80;99.90;;;;;;5057461;28;20202;-51
2022/04/24 01:00:00;;;;;;;4.70;4.30;;;12.70;99.90;;;;;;5057752;28;20657;-53
2022/04/24 01:02:27;;;;;;;5.50;4.90;;;12.80;99.90;;;;;;5063686;28;20229;-52
2022/04/24 01:04:57;;;;;;;6.00;4.33;;;12.80;99.90;;;;;;5060574;28;20287;-50
2022/04/24 01:07:24;;;;;;;5.30;4.80;;;12.70;99.90;;;;;;5059542;28;20209;-51
2022/04/24 01:09:51;;;;;;;5.57;4.70;;;12.60;99.90;;;;;;5059634;28;20742;-51
2022/04/24 01:12:18;;;;;;;5.33;4.83;;;12.60;99.90;;;;;;5063489;28;20621;-54
2022/04/24 01:14:45;;;;;;;5.00;4.30;;;12.70;99.90;;;;;;5061621;28;20742;-54
2022/04/24 01:17:12;;;;;;;4.90;4.40;;;12.50;99.90;;;;;;5061427;28;20709;-52
2022/04/24 01:19:40;;;;;;;5.40;4.90;;;12.60;99.90;;;;;;5061176;28;20541;-52
2022/04/24 01:22:07;;;;;;;5.73;4.83;;;12.50;99.90;;;;;;5060288;28;20585;-53
2022/04/24 01:24:34;;;;;;;5.47;4.97;;;12.40;99.90;;;;;;5054762;28;20201;-51
2022/04/24 01:27:01;;;;;;;5.00;4.47;;;12.40;99.90;;;;;;5051778;28;20544;-51
2022/04/24 01:29:28;;;;;;;6.47;4.57;;;12.30;99.90;;;;;;5064004;28;20225;-51
2022/04/24 01:31:56;;;;;;;4.80;4.30;;;12.30;99.90;;;;;;5062560;28;20242;-52
2022/04/24 01:34:23;;;;;;;5.27;4.77;;;12.40;99.90;;;;;;5060528;28;20196;-51
2022/04/24 01:36:50;;;;;;;5.23;4.73;;;12.20;99.90;;;;;;5058496;28;20198;-50
2022/04/24 01:39:17;;;;;;;5.10;4.60;;;12.20;99.90;;;;;;5060575;28;21075;-51
2022/04/24 01:41:45;;;;;;;7.90;4.67;;;12.00;99.90;;;;;;5059546;28;20197;-51
2022/04/24 01:44:12;;;;;;;6.23;4.83;;;11.90;99.90;;;;;;5059837;28;20224;-51
2022/04/24 01:46:38;;;;;;;5.53;4.77;;;11.90;99.90;;;;;;5054565;28;20266;-50
2022/04/24 01:49:05;;;;;;;5.00;4.50;;;11.80;99.90;;;;;;5047755;28;20336;-52
2022/04/24 01:51:32;;;;;;;5.43;4.93;;;11.90;99.90;;;;;;5052020;28;20246;-52
2022/04/24 01:53:59;;;;;;;5.73;4.90;;;11.90;99.90;;;;;;5050690;28;20717;-51
2022/04/24 01:56:26;;;;;;;5.87;4.30;;;11.90;99.90;;;;;;5054145;28;20635;-51
2022/04/24 01:58:53;;;;;;;5.93;5.10;;;12.00;99.90;;;;;;5050857;28;20256;-52
2022/04/24 02:01:19;;;;;;;5.40;4.90;;;11.90;99.90;;;;;;5059811;28;20217;-51
2022/04/24 02:03:46;;;;;;;5.77;5.13;;;11.90;99.90;;;;;;5051920;28;20609;-51
2022/04/24 02:06:14;;;;;;;6.40;5.20;;;11.70;99.90;;;;;;5054095;28;20208;-51
2022/04/24 02:08:40;;;;;;;5.53;5.03;;;11.70;99.90;;;;;;5043965;28;20243;-51
2022/04/24 02:11:08;;;;;;;5.90;5.33;;;11.80;99.90;;;;;;5060147;28;20210;-53
2022/04/24 02:13:35;;;;;;;5.47;4.97;;;11.70;99.90;;;;;;5058738;28;20298;-51
2022/04/24 02:16:02;;;;;;;6.17;5.57;;;11.60;99.90;;;;;;5053452;28;20863;-51
2022/04/24 02:18:29;;;;;;;6.53;5.93;;;11.70;99.90;;;;;;5060555;28;20196;-52
2022/04/24 02:20:56;;;;;;;6.77;6.17;;;11.60;99.90;;;;;;5061104;28;20296;-51
2022/04/24 02:23:23;;;;;;;8.47;5.50;;;11.40;99.90;;;;;;5061363;28;20720;-51
2022/04/24 02:25:50;;;;;;;8.07;6.20;;;11.50;99.90;;;;;;5057658;28;20293;-52
2022/04/24 02:28:17;;;;;;;6.40;5.70;;;11.40;99.90;;;;;;5058213;28;20234;-52
2022/04/24 02:30:44;;;;;;;7.37;6.00;;;11.50;99.90;;;;;;5053480;28;20243;-51
2022/04/24 02:33:11;;;;;;;6.20;5.60;;;11.40;99.90;;;;;;5059613;28;20371;-51
2022/04/24 02:35:38;;;;;;;7.97;5.50;;;11.30;99.90;;;;;;5057738;28;20191;-50
2022/04/24 02:38:05;;;;;;;8.23;6.17;;;11.30;99.90;;;;;;5060608;28;20222;-52
2022/04/24 02:40:32;;;;;;;6.00;5.47;;;11.30;99.90;;;;;;5061764;28;20241;-51
2022/04/24 02:42:58;;;;;;;6.80;6.10;;;11.30;99.90;;;;;;5059861;28;20286;-51
2022/04/24 02:45:25;;;;;;;6.40;5.67;;;11.20;99.90;;;;;;5059059;28;20332;-53
2022/04/24 02:47:52;;;;;;;6.60;6.00;;;11.10;99.90;;;;;;5059520;28;20920;-53
2022/04/24 02:50:19;;;;;;;6.67;6.00;;;11.10;99.90;;;;;;5052941;28;20559;-52
2022/04/24 02:52:54;;;;;;;6.87;6.17;;;11.20;99.90;;;;;;5048920;28;21937;-52
2022/04/24 02:55:22;;;;;;;7.43;6.63;;;11.00;99.90;;;;;;5058379;28;20291;-53
2022/04/24 02:57:49;;;;;;;8.23;6.83;;;11.10;99.90;;;;;;5061501;28;20210;-51
2022/04/24 03:00:20;;;;;;;7.50;6.77;;;11.30;99.90;;;;;;5062025;28;20637;-52
2022/04/24 03:02:47;;;;;;;6.33;5.73;;;11.00;99.90;;;;;;5057948;28;20653;-53
2022/04/24 03:05:16;;;;;;;7.67;6.27;;;11.00;99.90;;;;;;5058840;28;20292;-53
2022/04/24 03:07:44;;;;;;;7.67;6.83;;;10.90;99.90;;;;;;5060007;28;20202;-52
2022/04/24 03:10:12;;;;;;;7.03;6.33;;;10.90;99.90;;;;;;5062387;28;20248;-51
2022/04/24 03:12:41;;;;;;;7.80;6.37;;;11.00;99.90;;;;;;5060746;28;20203;-52
2022/04/24 03:15:09;;;;;;;7.60;6.43;;;10.90;99.90;;;;;;5058601;28;20290;-52
2022/04/24 03:17:37;;;;;;;6.87;6.27;;;10.70;99.90;;;;;;5044857;28;20233;-52
2022/04/24 03:20:06;;;;;;;7.30;6.50;;;10.70;99.90;;;;;;5059329;28;20213;-53
2022/04/24 03:22:33;;;;;;;9.60;6.93;;;10.60;99.90;;;;;;5059768;28;20265;-53
2022/04/24 03:25:01;;;;;;;7.13;6.43;;;10.70;99.90;;;;;;5059806;28;20225;-51
2022/04/24 03:27:28;;;;;;;9.40;7.03;;;10.60;99.90;;;;;;5065681;28;20203;-52
2022/04/24 03:29:55;;;;;;;8.27;7.47;;;10.50;99.90;;;;;;5066532;28;20246;-51
2022/04/24 03:32:22;;;;;;;10.30;7.03;;;10.70;99.90;;;;;;5065280;28;20287;-52
2022/04/24 03:34:50;;;;;;;7.37;6.47;;;10.60;99.90;;;;;;5063183;28;20967;-52
2022/04/24 03:37:18;;;;;;;9.43;7.03;;;10.70;99.90;;;;;;5061219;28;20565;-52
2022/04/24 03:39:46;;;;;;;7.77;6.97;;;10.60;99.90;;;;;;5067507;28;20295;-52
2022/04/24 03:42:12;;;;;;;7.37;6.60;;;10.40;99.90;;;;;;5066653;28;20565;-52
2022/04/24 03:44:39;;;;;;;7.80;7.00;;;10.30;99.90;;;;;;5063753;28;20688;-52
2022/04/24 03:47:07;;;;;;;10.03;7.27;;;10.40;99.90;;;;;;5041528;28;20347;-50
2022/04/24 03:49:35;;;;;;;7.17;6.47;;;10.30;99.90;;;;;;5064815;28;20286;-51
2022/04/24 03:52:02;;;;;;;7.23;6.53;;;10.30;99.90;;;;;;5067983;28;20377;-52
2022/04/24 03:54:30;;;;;;;8.63;6.80;;;10.30;99.90;;;;;;5065597;28;20227;-51
2022/04/24 03:56:57;;;;;;;7.50;6.80;;;10.30;99.90;;;;;;5064575;28;20193;-51
2022/04/24 03:59:24;;;;;;;7.23;6.23;;;10.30;99.90;;;;;;5064907;28;20259;-52
2022/04/24 04:01:51;;;;;;;9.17;6.77;;;10.30;99.90;;;;;;5066012;28;20706;-50
2022/04/24 04:04:18;;;;;;;9.20;7.20;;;10.20;99.90;;;;;;5053412;28;20214;-49
2022/04/24 04:06:45;;;;;;;10.43;7.07;;;10.20;99.90;;;;;;5055793;28;20724;-52
2022/04/24 04:09:12;;;;;;;8.60;6.70;;;10.30;99.90;;;;;;5064959;28;20682;-52
2022/04/24 04:11:38;;;;;;;7.40;6.67;;;10.30;99.90;;;;;;5062989;28;20254;-51
2022/04/24 04:14:06;;;;;;;8.03;6.83;;;10.10;99.90;;;;;;5045627;28;21001;-51
2022/04/24 04:16:33;;;;;;;8.90;6.43;;;10.10;99.90;;;;;;5056378;28;20719;-53
2022/04/24 04:19:00;;;;;;;8.43;6.53;;;10.10;99.90;;;;;;5061050;28;20205;-52
2022/04/24 04:21:27;;;;;;;9.63;7.13;;;10.10;99.90;;;;;;5059832;28;20232;-50
2022/04/24 04:23:54;;;;;;;8.13;6.77;;;10.10;99.90;;;;;;5059744;28;20259;-51
2022/04/24 04:26:21;;;;;;;7.43;6.30;;;10.10;99.90;;;;;;5061661;28;20554;-51
2022/04/24 04:28:48;;;;;;;7.60;5.80;;;10.00;99.90;;;;;;5060097;28;20296;-52
2022/04/24 04:31:15;;;;;;;7.50;6.73;;;10.00;99.90;;;;;;5053240;28;22405;-51
2022/04/24 04:33:42;;;;;;;7.07;6.37;;;10.10;99.90;;;;;;5062366;28;20287;-52
2022/04/24 04:36:09;;;;;;;7.50;6.27;;;10.20;99.90;;;;;;5055456;28;20193;-53
2022/04/24 04:38:36;;;;;;;7.57;6.77;;;10.10;99.90;;;;;;5058721;28;20266;-51
2022/04/24 04:41:04;;;;;;;10.57;6.47;;;10.00;99.90;;;;;;5034899;28;20220;-50
2022/04/24 04:43:31;;;;;;;10.53;6.80;;;10.00;99.90;;;;;;5063915;28;20649;-51
2022/04/24 04:45:58;;;;;;;9.17;6.33;;;10.00;99.90;;;;;;5065850;28;20619;-54
2022/04/24 04:48:26;;;;;;;6.70;5.80;;;10.00;99.90;;;;;;5064241;28;20737;-52
2022/04/24 04:50:53;;;;;;;6.57;5.73;;;10.00;99.90;;;;;;5065469;28;20213;-53
2022/04/24 04:53:21;;;;;;;9.60;6.50;;;10.10;99.90;;;;;;5063310;28;20201;-54
2022/04/24 04:55:48;;;;;;;10.97;6.27;;;10.00;99.90;;;;;;5062154;28;20949;-52
2022/04/24 04:58:15;;;;;;;7.63;6.10;;;9.80;99.90;;;;;;5062583;28;20292;-52
2022/04/24 05:00:42;;;;;;;6.27;5.67;;;9.90;99.90;;;;;;5058549;28;20561;-52
2022/04/24 05:03:09;;;;;;;7.83;5.87;;;9.90;99.90;;;;;;5063914;28;20546;-52
2022/04/24 05:05:36;;;;;;;6.80;6.10;;;9.90;99.90;;;;;;5058528;28;20563;-51
2022/04/24 05:08:03;;;;;;;7.83;6.10;;;10.00;99.90;;;;;;5061505;28;20894;-51
2022/04/24 05:10:30;;;;;;;7.40;5.60;;;10.00;99.90;;;;;;5059215;28;20296;-53
2022/04/24 05:12:57;;;;;;;8.03;5.50;;;10.10;99.90;;;;;;5055667;28;20197;-51
2022/04/24 05:15:25;;;;;;;6.67;5.80;;;10.00;99.90;;;;;;5060452;28;20426;-51
2022/04/24 05:17:52;;;;;;;6.47;5.60;;;10.00;99.90;;;;;;5056908;28;20197;-51
2022/04/24 05:20:20;;;;;;;7.13;5.53;;;10.00;99.90;;;;;;5062025;28;20204;-52
2022/04/24 05:22:47;;;;;;;8.57;5.67;;;10.00;99.90;;;;;;5063149;28;20259;-51
2022/04/24 05:25:14;;;;;;;8.83;5.90;;;10.00;99.90;;;;;;5050727;28;20225;-54
2022/04/24 05:27:41;;;;;;;6.93;6.07;;;9.90;99.90;;;;;;5054030;28;20351;-53
2022/04/24 05:30:09;;;;;;;6.40;5.80;;;10.10;99.90;;;;;;5059675;28;20284;-51
2022/04/24 05:32:48;;;;;;;6.87;5.73;;;10.20;99.90;;;;;;5059983;28;20237;-54
2022/04/24 05:35:16;;;;;;;8.33;5.60;;;10.20;99.90;;;;;;5062718;28;20235;-51
2022/04/24 05:37:45;;;;;;;8.87;5.73;;;10.10;99.90;;;;;;5062405;28;20199;-53
2022/04/24 05:40:12;;;;;;;8.60;6.20;;;10.20;99.90;;;;;;5061246;28;20192;-51
2022/04/24 05:42:55;;;;;;;7.10;5.67;;;10.10;99.90;;;;;;5062830;28;20201;-52
2022/04/24 05:45:24;;;;;;;6.50;5.20;;;10.10;99.90;;;;;;5065013;28;20200;-53
2022/04/24 05:47:55;;;;;;;7.03;5.70;;;10.20;99.90;;;;;;5058793;28;20751;-51
2022/04/24 05:50:23;;;;;;;7.13;5.50;;;10.30;99.90;;;;;;5060812;28;20197;-52
2022/04/24 05:52:54;;;;;;;6.57;5.87;;;10.30;99.90;;;;;;5053518;28;20215;-52
2022/04/24 05:55:22;;;;;;;6.03;4.90;;;10.40;99.90;;;;;;5048186;28;20292;-51
2022/04/24 05:57:49;;;;;;;6.17;5.30;;;10.40;99.90;;;;;;5057672;28;20234;-53
2022/04/24 06:00:17;;;;;;;6.50;5.80;;;10.40;99.90;;;;;;5051360;28;20201;-53
2022/04/24 06:02:50;;;;;;;6.50;5.30;;;10.60;99.90;;;;;;5057794;28;20195;-54
2022/04/24 06:05:17;;;;;;;7.47;5.37;;;10.50;99.90;;;;;;5056324;28;20207;-53
2022/04/24 06:07:44;;;;;;;6.53;5.40;;;10.70;99.90;;;;;;5059450;28;20287;-53
2022/04/24 06:10:11;;;;;;;5.73;5.13;;;10.80;99.90;;;;;;5056367;28;20428;-53
2022/04/24 06:12:49;;;;;;;6.67;5.00;;;10.80;99.90;;;;;;5059475;28;20607;-53
2022/04/24 06:15:20;;;;;;;7.83;6.03;;;10.80;99.90;;;;;;5057424;28;20237;-53
2022/04/24 06:17:49;;;;;;;5.97;5.17;;;10.80;99.90;;;;;;5056482;28;20250;-52
2022/04/24 06:20:17;;;;;;;7.23;5.50;;;10.80;99.90;;;;;;5057491;28;20197;-54
2022/04/24 06:22:56;;;;;;;7.30;5.37;;;10.90;99.90;;;;;;5060425;28;20226;-52
2022/04/24 06:25:27;;;;;;;5.40;4.90;;;11.00;99.90;;;;;;5056312;28;20220;-52
2022/04/24 06:27:54;;;;;;;9.17;5.03;;;10.90;99.90;;;;;;5059061;28;20522;-51
2022/04/24 06:30:24;;;;;;;6.53;5.17;;;11.00;99.90;;;;;;5038507;28;21036;-53
2022/04/24 06:32:51;;;;;;;6.37;5.50;;;11.20;99.90;;;;;;5059790;28;20274;-53
2022/04/24 06:35:19;;;;;;;7.27;5.03;;;11.30;99.90;;;;;;5056957;28;20235;-54
2022/04/24 06:37:47;;;;;;;7.70;5.20;;;11.40;99.90;;;;;;5057646;28;20681;-52
2022/04/24 06:40:16;;;;;;;8.53;5.53;;;11.50;99.90;;;;;;5058790;28;20202;-52
2022/04/24 06:42:57;;;;;;;5.60;5.00;;;11.70;99.90;;;;;;5062701;28;20317;-51
2022/04/24 06:45:43;;;;;;;7.97;5.40;;;11.90;99.90;;;;;;5058922;28;20195;-53
2022/04/24 06:48:15;;;;;;;6.47;5.50;;;12.00;99.90;;;;;;5060263;28;20595;-52
2022/04/24 06:50:44;;;;;;;7.50;5.10;;;12.00;99.90;;;;;;5057168;28;20206;-50
2022/04/24 06:53:12;;;;;;;8.13;5.00;;;12.20;99.90;;;;;;5051106;28;20229;-49
2022/04/24 06:55:42;;;;;;;6.00;5.03;;;12.40;99.90;;;;;;5059160;28;20191;-51
2022/04/24 06:58:11;;;;;;;6.03;4.70;;;12.40;99.90;;;;;;5055863;28;20203;-52
2022/04/24 07:00:40;;;;;;;6.80;5.07;;;12.70;99.90;;;;;;5057860;28;20203;-52
2022/04/24 07:03:29;;;;;;;4.57;4.17;;;12.70;99.90;;;;;;5057269;28;20209;-52
2022/04/24 07:05:57;;;;;;;5.57;5.07;;;12.80;99.90;;;;;;5061906;28;20550;-52
2022/04/24 07:08:24;;;;;;;10.10;5.37;;;13.10;99.90;;;;;;5058108;28;20538;-53
2022/04/24 07:10:53;;;;;;;5.40;4.90;;;13.20;99.90;;;;;;5057539;28;20195;-52
2022/04/24 07:13:20;;;;;;;5.93;5.33;;;13.20;99.90;;;;;;5052263;28;20201;-55
2022/04/24 07:15:47;;;;;;;5.20;4.60;;;13.40;99.90;;;;;;5059721;28;20201;-52
2022/04/24 07:18:14;;;;;;;5.73;4.80;;;13.20;99.90;;;;;;5056351;28;20297;-52
2022/04/24 07:20:41;;;;;;;5.80;5.20;;;13.40;99.90;;;;;;5041084;28;20199;-53
2022/04/24 07:23:08;;;;;;;7.30;5.60;;;13.60;99.90;;;;;;5055500;28;20304;-53
2022/04/24 07:25:44;;;;;;;6.10;4.70;;;13.60;99.90;;;;;;5057505;28;20821;-53
2022/04/24 07:28:13;;;;;;;8.87;5.27;;;13.80;99.90;;;;;;5061711;28;20261;-52
2022/04/24 07:30:40;;;;;;;6.57;4.73;;;13.40;99.90;;;;;;5055813;28;20205;-54
2022/04/24 07:33:07;;;;;;;5.63;4.80;;;13.60;99.90;;;;;;5056152;28;20241;-52
2022/04/24 07:35:37;;;;;;;5.07;4.57;;;13.90;99.90;;;;;;5059852;28;20199;-52
2022/04/24 07:38:04;;;;;;;6.23;5.23;;;14.20;99.90;;;;;;5041736;28;20304;-53
2022/04/24 07:40:35;;;;;;;5.30;4.80;;;14.20;99.90;;;;;;5051639;28;20198;-53
2022/04/24 07:43:04;;;;;;;5.27;4.77;;;14.30;99.90;;;;;;5060273;28;20725;-52
2022/04/24 07:45:43;;;;;;;5.87;5.30;;;14.30;99.90;;;;;;5059355;28;20200;-51
2022/04/24 07:48:11;;;;;;;5.57;5.00;;;14.10;99.90;;;;;;5051073;28;20205;-51
2022/04/24 07:50:46;;;;;;;7.80;5.30;;;13.70;99.90;;;;;;5053022;28;20224;-52
2022/04/24 07:53:14;;;;;;;5.50;5.00;;;14.20;99.90;;;;;;5043760;28;20722;-53
2022/04/24 07:55:42;;;;;;;6.20;5.60;;;14.00;99.90;;;;;;5056802;28;20235;-52
2022/04/24 07:58:10;;;;;;;5.60;5.00;;;13.90;99.90;;;;;;5048297;28;20304;-52
2022/04/24 08:00:38;;;;;;;6.63;5.33;;;14.20;99.90;;;;;;5056215;28;20378;-57
2022/04/24 08:03:09;;;;;;;6.03;5.40;;;14.20;99.90;;;;;;5044803;28;20331;-52
2022/04/24 08:05:39;;;;;;;6.17;5.57;;;14.20;99.90;;;;;;5054687;28;20278;-52
2022/04/24 08:08:14;;;;;;;5.93;5.03;;;14.40;99.90;;;;;;5056173;28;20209;-52
2022/04/24 08:10:44;;;;;;;6.40;5.30;;;14.50;99.90;;;;;;5053213;28;20193;-52
2022/04/24 08:13:11;;;;;;;7.70;5.70;;;14.60;99.90;;;;;;5050782;28;20209;-51
2022/04/24 08:15:41;;;;;;;5.90;5.30;;;14.60;99.90;;;;;;5062560;28;20627;-52
2022/04/24 08:18:10;;;;;;;6.57;5.17;;;14.50;99.90;;;;;;5060394;28;20202;-53
2022/04/24 08:20:39;;;;;;;6.00;5.40;;;14.60;99.90;;;;;;5060637;28;20202;-52
2022/04/24 08:23:06;;;;;;;8.93;5.70;;;14.90;99.90;;;;;;5055303;28;20316;-54
2022/04/24 08:25:35;;;;;;;7.87;5.70;;;14.90;99.90;;;;;;5062538;28;20298;-51
2022/04/24 08:28:07;;;;;;;6.47;5.77;;;14.90;99.90;;;;;;5064739;28;20235;-52
2022/04/24 08:30:40;;;;;;;6.57;5.50;;;15.30;99.90;;;;;;5060775;28;20214;-52
2022/04/24 08:33:08;;;;;;;6.60;6.00;;;15.30;99.90;;;;;;5060681;28;20323;-53
2022/04/24 08:35:35;;;;;;;5.90;5.30;;;15.30;99.90;;;;;;5057676;28;20665;-50
2022/04/24 08:38:02;;;;;;;6.53;5.67;;;15.80;99.90;;;;;;5049392;28;20262;-52
2022/04/24 08:40:29;;;;;;;6.20;5.60;;;15.80;99.90;;;;;;5064178;28;20731;-50
2022/04/24 08:42:56;;;;;;;7.63;5.83;;;15.70;99.90;;;;;;5051048;28;20206;-51
2022/04/24 08:45:26;;;;;;;6.53;5.83;;;15.80;99.90;;;;;;5062485;28;20195;-53
2022/04/24 08:47:55;;;;;;;8.23;6.37;;;15.80;99.90;;;;;;5055460;28;20690;-53
2022/04/24 08:50:28;;;;;;;8.57;6.47;;;16.00;99.90;;;;;;5062569;28;20199;-52
2022/04/24 08:52:56;;;;;;;7.57;6.40;;;16.30;99.90;;;;;;5064170;28;20210;-52
2022/04/24 08:55:29;;;;;;;8.77;7.03;;;15.90;99.90;;;;;;5060428;28;20226;-53
2022/04/24 08:57:56;;;;;;;7.00;6.30;;;16.30;99.90;;;;;;5057035;28;20214;-52
2022/04/24 09:00:24;;;;;;;8.43;7.00;;;16.50;99.90;;;;;;5063585;28;20598;-52
2022/04/24 09:02:51;;;;;;;9.07;7.47;;;16.60;99.90;;;;;;5061294;28;20583;-52
2022/04/24 09:05:20;;;;;;;7.30;6.57;;;16.40;99.90;;;;;;5061850;28;20206;-51
2022/04/24 09:07:48;;;;;;;7.43;6.67;;;16.30;99.90;;;;;;5052293;28;20202;-52
2022/04/24 09:10:56;;;;;;;9.33;7.40;;;17.00;99.90;;;;;;5049647;28;20289;-50
2022/04/24 09:13:30;;;;;;;7.63;6.53;;;17.10;99.90;;;;;;5053079;28;20203;-53
2022/04/24 09:16:02;;;;;;;6.67;6.03;;;17.10;99.90;;;;;;5057838;28;20234;-52
2022/04/24 09:18:41;;;;;;;7.97;6.93;;;17.10;99.90;;;;;;5060451;28;20560;-58
2022/04/24 09:21:11;;;;;;;6.80;6.10;;;17.40;99.90;;;;;;5066716;28;20605;-51
2022/04/24 09:23:42;;;;;;;7.83;6.80;;;17.90;99.90;;;;;;5062247;28;20196;-52
2022/04/24 09:26:16;;;;;;;6.87;6.03;;;16.80;99.90;;;;;;5051828;28;20193;-53
2022/04/24 09:28:44;;;;;;;7.23;6.53;;;16.80;99.90;;;;;;5051550;28;20199;-51
2022/04/24 09:31:11;;;;;;;7.47;6.57;;;16.90;99.90;;;;;;5047763;28;20210;-53
2022/04/24 09:33:43;;;;;;;7.50;6.40;;;17.10;99.90;;;;;;5052618;28;20500;-51
2022/04/24 09:36:10;;;;;;;7.07;6.20;;;17.50;99.90;;;;;;5057066;28;20227;-50
2022/04/24 09:38:45;;;;;;;9.73;6.80;;;17.50;99.90;;;;;;5034360;28;20199;-53
2022/04/24 09:41:23;;;;;;;8.80;6.47;;;17.10;99.90;;;;;;5062413;28;20226;-51
2022/04/24 09:43:50;;;;;;;7.67;6.60;;;17.60;99.90;;;;;;5059878;28;20191;-52
2022/04/24 09:46:27;;;;;;;7.37;6.57;;;17.90;99.90;;;;;;5063885;28;20312;-51
2022/04/24 09:49:00;;;;;;;7.23;6.50;;;17.50;99.90;;;;;;5050698;28;20722;-52
2022/04/24 09:51:27;;;;;;;7.57;6.83;;;17.30;99.90;;;;;;5057297;28;20202;-53
2022/04/24 09:54:02;;;;;;;7.10;6.27;;;17.50;99.90;;;;;;5060117;28;20202;-53
2022/04/24 09:56:31;;;;;;;7.33;6.07;;;17.00;99.90;;;;;;5062010;28;20200;-51
2022/04/24 09:58:58;;;;;;;6.87;5.73;;;16.90;99.90;;;;;;5050325;28;20298;-52
2022/04/24 10:01:29;;;;;;;6.53;5.80;;;17.10;99.90;;;;;;5058432;28;20264;-52
2022/04/24 10:03:56;;;;;;;6.50;5.83;;;17.60;99.90;;;;;;5058881;28;20195;-52
2022/04/24 10:06:24;;;;;;;9.40;6.30;;;18.00;99.90;;;;;;5063255;28;20574;-49
2022/04/24 10:08:51;;;;;;;6.73;6.13;;;17.90;99.90;;;;;;5047781;28;20276;-53
2022/04/24 10:11:19;;;;;;;6.80;6.10;;;17.90;99.90;;;;;;5055018;28;20251;-51
2022/04/24 10:13:48;;;;;;;7.07;6.43;;;17.90;99.90;;;;;;5067221;28;20226;-52
2022/04/24 10:16:34;;;;;;;10.57;7.40;;;17.80;99.90;;;;;;5062601;28;20687;-52
2022/04/24 10:19:37;;;;;;;6.63;5.77;;;17.70;99.90;;;;;;5060869;28;20202;-52
2022/04/24 10:22:26;;;;;;;7.73;6.60;;;17.60;99.90;;;;;;5062527;28;20303;-50
2022/04/24 10:25:00;;;;;;;8.57;7.63;;;17.60;99.90;;;;;;5063259;28;20223;-50
2022/04/24 10:27:41;;;;;;;8.60;6.40;;;17.70;99.90;;;;;;5064244;28;20297;-49
2022/04/24 10:30:34;;;;;;;8.30;7.37;;;17.80;99.90;;;;;;5060002;28;20549;-50
2022/04/24 10:33:23;;;;;;;8.67;6.33;;;18.00;99.90;;;;;;5061686;28;20338;-52
2022/04/24 10:35:53;;;;;;;7.13;6.43;;;18.20;99.90;;;;;;5063161;28;20195;-52
2022/04/24 10:38:23;;;;;;;6.40;5.80;;;18.40;99.90;;;;;;5051658;28;20234;-53
2022/04/24 10:41:02;;;;;;;8.87;7.47;;;18.50;99.90;;;;;;5067156;28;20870;-52
2022/04/24 10:43:39;;;;;;;7.87;6.20;;;18.40;99.90;;;;;;5054337;28;20257;-52
2022/04/24 10:46:16;;;;;;;6.90;6.20;;;18.30;99.90;;;;;;5060465;28;20213;-53
2022/04/24 10:48:46;;;;;;;6.90;6.07;;;18.30;99.90;;;;;;5060743;28;20573;-53
2022/04/24 10:51:15;;;;;;;9.57;6.10;;;18.20;99.90;;;;;;5062731;28;20226;-52
2022/04/24 10:53:54;;;;;;;6.13;5.53;;;18.30;99.90;;;;;;5064088;28;20589;-53
2022/04/24 10:56:21;;;;;;;8.00;5.73;;;18.50;99.90;;;;;;5059627;28;20198;-52
2022/04/24 10:58:51;;;;;;;7.23;5.23;;;18.40;99.90;;;;;;5062607;28;20245;-51
2022/04/24 11:01:18;;;;;;;6.43;5.37;;;18.60;99.90;;;;;;5062755;28;20290;-53
2022/04/24 11:03:46;;;;;;;6.40;5.80;;;18.60;99.90;;;;;;5059532;28;20252;-53
2022/04/24 11:06:21;;;;;;;5.43;4.93;;;18.80;99.90;;;;;;5061624;28;20255;-52
2022/04/24 11:08:49;;;;;;;5.33;4.83;;;18.60;99.90;;;;;;5057988;28;20198;-51
2022/04/24 11:11:18;;;;;;;6.63;5.87;;;18.70;99.90;;;;;;5062087;28;20575;-52
2022/04/24 11:13:45;;;;;;;5.33;4.83;;;18.90;99.90;;;;;;5061254;28;20263;-52
2022/04/24 11:16:13;;;;;;;9.43;6.50;;;19.00;99.90;;;;;;5059194;28;20341;-53
2022/04/24 11:18:45;;;;;;;6.13;5.40;;;19.00;99.90;;;;;;5060591;28;20199;-52
2022/04/24 11:21:19;;;;;;;5.23;4.73;;;18.90;99.90;;;;;;5061235;28;20598;-54
2022/04/24 11:23:46;;;;;;;6.47;5.27;;;18.80;99.90;;;;;;5043235;28;20265;-53
2022/04/24 11:26:14;;;;;;;5.73;4.83;;;18.40;99.90;;;;;;5054955;28;20211;-52
2022/04/24 11:28:48;;;;;;;5.97;5.37;;;18.40;99.90;;;;;;5056830;28;20277;-52
2022/04/24 11:31:17;;;;;;;4.97;4.50;;;18.60;99.90;;;;;;5058648;28;20273;-52
2022/04/24 11:33:56;;;;;;;6.87;4.97;;;18.80;99.90;;;;;;5049632;28;20279;-52
2022/04/24 11:36:31;;;;;;;6.00;4.57;;;19.30;99.90;;;;;;5051129;28;20227;-52
2022/04/24 11:39:01;;;;;;;5.30;4.80;;;19.00;99.90;;;;;;5066138;28;20268;-53
2022/04/24 11:41:29;;;;;;;6.40;4.23;;;19.40;99.90;;;;;;5066754;28;20261;-53
2022/04/24 11:50:16;;;;;;;4.80;4.40;;;18.80;99.90;;;;;;5066274;28;20638;-54
2022/04/24 11:53:03;;;;;;;6.17;4.77;;;19.10;99.90;;;;;;5060385;28;20702;-53
2022/04/24 11:58:17;;;;;;;5.10;4.60;;;18.90;99.90;;;;;;5070251;28;20199;-52
2022/04/24 12:00:47;;;;;;;4.77;4.30;;;19.80;99.90;;;;;;5068901;28;20277;-53
2022/04/24 12:03:14;;;;;;;5.00;4.50;;;19.40;99.90;;;;;;5069277;28;20211;-55
2022/04/24 12:05:42;;;;;;;7.83;5.00;;;18.90;99.90;;;;;;5071253;28;20286;-54
2022/04/24 12:08:11;;;;;;;5.73;4.53;;;18.40;99.90;;;;;;5069975;28;20294;-52
2022/04/24 12:10:45;;;;;;;5.27;4.20;;;18.60;99.90;;;;;;5067766;28;20472;-52
2022/04/24 12:13:13;;;;;;;4.97;4.23;;;18.60;99.90;;;;;;5066945;28;20318;-51
2022/04/24 12:15:50;;;;;;;4.87;4.37;;;18.10;99.90;;;;;;5069831;28;20204;-53
2022/04/24 12:18:25;;;;;;;5.13;4.47;;;18.50;99.90;;;;;;5064476;28;20341;-54
2022/04/24 12:20:52;;;;;;;4.67;4.20;;;18.60;99.90;;;;;;5065304;28;20193;-51
2022/04/24 12:23:20;;;;;;;5.97;4.30;;;18.80;99.90;;;;;;5071415;28;20223;-53
2022/04/24 12:25:53;;;;;;;4.30;3.90;;;19.60;99.90;;;;;;5069465;28;20550;-53
2022/04/24 12:28:41;;;;;;;5.00;4.50;;;19.20;99.90;;;;;;5067988;28;20738;-54
2022/04/24 12:31:23;;;;;;;5.10;4.40;;;18.20;99.90;;;;;;5050280;28;20332;-54
2022/04/24 12:33:53;;;;;;;6.03;4.50;;;18.10;99.90;;;;;;5064645;28;20266;-52
2022/04/24 12:36:21;;;;;;;4.20;3.80;;;18.70;99.90;;;;;;5069140;28;20291;-52
2022/04/24 12:38:59;;;;;;;6.80;4.03;;;18.60;99.90;;;;;;5065909;28;20311;-52
2022/04/24 12:41:38;;;;;;;8.67;4.33;;;18.50;99.90;;;;;;5067791;28;20226;-52
2022/04/24 12:44:06;;;;;;;5.17;4.70;;;18.40;99.90;;;;;;5063739;28;20294;-52
2022/04/24 12:46:36;;;;;;;4.40;4.00;;;19.40;99.90;;;;;;5067061;28;20222;-53
2022/04/24 12:49:04;;;;;;;4.93;4.30;;;19.20;99.90;;;;;;5067123;28;20350;-53
2022/04/24 12:51:31;;;;;;;7.23;4.60;;;18.90;99.90;;;;;;5068408;28;20718;-51
2022/04/24 12:54:02;;;;;;;7.07;4.73;;;19.80;99.90;;;;;;5068423;28;20211;-52
2022/04/24 12:56:30;;;;;;;4.80;4.20;;;20.10;99.90;;;;;;5068967;28;20298;-53
2022/04/24 12:58:58;;;;;;;6.47;4.27;;;19.50;99.90;;;;;;5067717;28;20236;-51
2022/04/24 13:01:25;;;;;;;5.77;4.50;;;18.70;99.90;;;;;;5068392;28;20199;-53
2022/04/24 13:03:54;;;;;;;5.17;4.67;;;18.60;99.90;;;;;;5061580;28;20208;-54
2022/04/24 13:06:27;;;;;;;6.47;4.10;;;19.40;99.90;;;;;;5065348;28;20202;-53